sensor_id;sensor_type;location;lat;lon;timestamp;P1;durP1;ratioP1;P2;durP2;ratioP2
75112;SDS011;63692;47.338;8.520;2023-03-01T05:13:58;40.40;;;21.92;;
75112;SDS011;63692;47.338;8.520;2023-03-01T05:16:24;38.40;;;22.25;;
75112;SDS011;63692;47.338;8.520;2023-03-01T05:18:49;38.22;;;23.00;;
75112;SDS011;63692;47.338;8.520;2023-03-01T05:21:16;37.50;;;21.75;;
75112;SDS011;63692;47.338;8.520;2023-03-01T05:23:41;35.05;;;21.45;;
75112;SDS011;63692;47.338;8.520;2023-03-01T05:26:07;38.95;;;22.15;;
75112;SDS011;63692;47.338;8.520;2023-03-01T05:31:01;37.97;;;22.25;;
75112;SDS011;63692;47.338;8.520;2023-03-01T05:35:54;38.90;;;22.02;;
75112;SDS011;63692;47.338;8.520;2023-03-01T05:38:20;36.97;;;21.52;;
75112;SDS011;63692;47.338;8.520;2023-03-01T05:40:47;39.50;;;22.50;;
75112;SDS011;63692;47.338;8.520;2023-03-01T05:45:41;39.35;;;22.60;;
75112;SDS011;63692;47.338;8.520;2023-03-01T05:53:18;42.15;;;22.35;;
75112;SDS011;63692;47.338;8.520;2023-03-01T05:55:46;38.85;;;21.75;;
75112;SDS011;63692;47.338;8.520;2023-03-01T06:00:42;39.63;;;22.00;;
75112;SDS011;63692;47.338;8.520;2023-03-01T06:03:09;39.65;;;22.60;;
75112;SDS011;63692;47.338;8.520;2023-03-01T06:05:36;39.72;;;23.50;;
75112;SDS011;63692;47.338;8.520;2023-03-01T06:08:02;42.05;;;22.48;;
75112;SDS011;63692;47.338;8.520;2023-03-01T06:10:28;40.67;;;23.77;;
75112;SDS011;63692;47.338;8.520;2023-03-01T06:12:54;40.30;;;23.17;;
75112;SDS011;63692;47.338;8.520;2023-03-01T06:15:20;40.58;;;21.95;;
75112;SDS011;63692;47.338;8.520;2023-03-01T06:17:46;42.05;;;22.48;;
75112;SDS011;63692;47.338;8.520;2023-03-01T06:20:13;41.60;;;22.67;;
75112;SDS011;63692;47.338;8.520;2023-03-01T06:22:44;41.88;;;22.88;;
75112;SDS011;63692;47.338;8.520;2023-03-01T06:25:12;39.55;;;22.23;;
75112;SDS011;63692;47.338;8.520;2023-03-01T06:27:40;41.45;;;22.40;;
75112;SDS011;63692;47.338;8.520;2023-03-01T06:30:06;42.20;;;22.95;;
75112;SDS011;63692;47.338;8.520;2023-03-01T06:32:34;40.22;;;21.83;;
75112;SDS011;63692;47.338;8.520;2023-03-01T06:35:00;42.10;;;22.90;;
75112;SDS011;63692;47.338;8.520;2023-03-01T06:37:26;40.80;;;22.08;;
75112;SDS011;63692;47.338;8.520;2023-03-01T06:39:51;40.92;;;22.05;;
75112;SDS011;63692;47.338;8.520;2023-03-01T06:42:17;41.85;;;21.85;;
75112;SDS011;63692;47.338;8.520;2023-03-01T06:44:43;39.85;;;23.13;;
75112;SDS011;63692;47.338;8.520;2023-03-01T06:47:09;41.05;;;23.15;;
75112;SDS011;63692;47.338;8.520;2023-03-01T06:49:34;41.00;;;22.40;;
75112;SDS011;63692;47.338;8.520;2023-03-01T06:52:00;43.70;;;23.30;;
75112;SDS011;63692;47.338;8.520;2023-03-01T06:54:25;41.28;;;22.25;;
75112;SDS011;63692;47.338;8.520;2023-03-01T06:56:51;40.25;;;21.45;;
75112;SDS011;63692;47.338;8.520;2023-03-01T06:59:18;39.78;;;22.90;;
75112;SDS011;63692;47.338;8.520;2023-03-01T07:01:44;41.70;;;22.95;;
75112;SDS011;63692;47.338;8.520;2023-03-01T07:04:10;41.10;;;23.02;;
75112;SDS011;63692;47.338;8.520;2023-03-01T07:06:36;41.65;;;22.25;;
75112;SDS011;63692;47.338;8.520;2023-03-01T07:09:02;43.05;;;23.05;;
75112;SDS011;63692;47.338;8.520;2023-03-01T07:11:27;40.00;;;21.92;;
75112;SDS011;63692;47.338;8.520;2023-03-01T07:13:53;40.33;;;22.30;;
75112;SDS011;63692;47.338;8.520;2023-03-01T07:16:19;41.50;;;21.73;;
75112;SDS011;63692;47.338;8.520;2023-03-01T07:18:45;42.45;;;22.58;;
75112;SDS011;63692;47.338;8.520;2023-03-01T07:21:12;50.30;;;23.75;;
75112;SDS011;63692;47.338;8.520;2023-03-01T07:23:39;40.75;;;22.67;;
75112;SDS011;63692;47.338;8.520;2023-03-01T07:26:05;39.80;;;21.45;;
75112;SDS011;63692;47.338;8.520;2023-03-01T07:28:31;38.60;;;22.48;;
75112;SDS011;63692;47.338;8.520;2023-03-01T07:31:01;41.58;;;22.92;;
75112;SDS011;63692;47.338;8.520;2023-03-01T07:33:28;43.50;;;22.60;;
75112;SDS011;63692;47.338;8.520;2023-03-01T07:35:57;39.65;;;22.40;;
75112;SDS011;63692;47.338;8.520;2023-03-01T07:38:24;43.15;;;23.05;;
75112;SDS011;63692;47.338;8.520;2023-03-01T07:40:50;41.95;;;22.83;;
75112;SDS011;63692;47.338;8.520;2023-03-01T07:43:15;49.92;;;23.17;;
75112;SDS011;63692;47.338;8.520;2023-03-01T07:45:41;41.08;;;21.92;;
75112;SDS011;63692;47.338;8.520;2023-03-01T07:48:06;39.58;;;22.10;;
75112;SDS011;63692;47.338;8.520;2023-03-01T07:50:32;42.33;;;21.95;;
75112;SDS011;63692;47.338;8.520;2023-03-01T07:52:57;38.60;;;21.08;;
75112;SDS011;63692;47.338;8.520;2023-03-01T07:55:23;43.03;;;21.85;;
75112;SDS011;63692;47.338;8.520;2023-03-01T07:57:48;39.53;;;21.83;;
75112;SDS011;63692;47.338;8.520;2023-03-01T08:00:14;41.72;;;21.40;;
75112;SDS011;63692;47.338;8.520;2023-03-01T08:02:40;40.05;;;21.25;;
75112;SDS011;63692;47.338;8.520;2023-03-01T08:05:07;40.85;;;22.17;;
75112;SDS011;63692;47.338;8.520;2023-03-01T08:07:33;40.65;;;21.52;;
75112;SDS011;63692;47.338;8.520;2023-03-01T08:09:59;41.17;;;21.60;;
75112;SDS011;63692;47.338;8.520;2023-03-01T08:12:25;38.90;;;20.73;;
75112;SDS011;63692;47.338;8.520;2023-03-01T08:14:52;39.90;;;20.98;;
75112;SDS011;63692;47.338;8.520;2023-03-01T08:17:18;40.72;;;21.65;;
75112;SDS011;63692;47.338;8.520;2023-03-01T08:19:47;45.20;;;22.15;;
75112;SDS011;63692;47.338;8.520;2023-03-01T08:22:12;41.05;;;21.98;;
75112;SDS011;63692;47.338;8.520;2023-03-01T08:24:38;41.53;;;22.13;;
75112;SDS011;63692;47.338;8.520;2023-03-01T08:27:04;38.95;;;20.50;;
75112;SDS011;63692;47.338;8.520;2023-03-01T08:29:30;40.13;;;20.65;;
75112;SDS011;63692;47.338;8.520;2023-03-01T08:31:56;41.92;;;22.35;;
75112;SDS011;63692;47.338;8.520;2023-03-01T08:34:22;38.85;;;21.23;;
75112;SDS011;63692;47.338;8.520;2023-03-01T08:36:47;42.47;;;21.35;;
75112;SDS011;63692;47.338;8.520;2023-03-01T08:39:15;40.88;;;21.15;;
75112;SDS011;63692;47.338;8.520;2023-03-01T08:41:43;39.10;;;21.25;;
75112;SDS011;63692;47.338;8.520;2023-03-01T08:44:09;39.25;;;20.77;;
75112;SDS011;63692;47.338;8.520;2023-03-01T08:46:40;39.03;;;21.27;;
75112;SDS011;63692;47.338;8.520;2023-03-01T08:49:07;36.30;;;20.33;;
75112;SDS011;63692;47.338;8.520;2023-03-01T08:51:34;41.72;;;20.98;;
75112;SDS011;63692;47.338;8.520;2023-03-01T08:54:05;39.28;;;21.35;;
75112;SDS011;63692;47.338;8.520;2023-03-01T08:56:32;38.35;;;21.00;;
75112;SDS011;63692;47.338;8.520;2023-03-01T08:58:58;40.40;;;21.25;;
75112;SDS011;63692;47.338;8.520;2023-03-01T09:01:24;43.42;;;20.80;;
75112;SDS011;63692;47.338;8.520;2023-03-01T09:03:50;38.20;;;21.13;;
75112;SDS011;63692;47.338;8.520;2023-03-01T09:06:16;40.25;;;21.73;;
75112;SDS011;63692;47.338;8.520;2023-03-01T09:08:42;43.40;;;22.17;;
75112;SDS011;63692;47.338;8.520;2023-03-01T09:11:10;41.85;;;22.10;;
75112;SDS011;63692;47.338;8.520;2023-03-01T09:13:37;40.40;;;20.73;;
75112;SDS011;63692;47.338;8.520;2023-03-01T09:16:03;38.72;;;19.83;;
75112;SDS011;63692;47.338;8.520;2023-03-01T09:18:31;38.38;;;20.75;;
75112;SDS011;63692;47.338;8.520;2023-03-01T09:21:15;42.78;;;21.30;;
75112;SDS011;63692;47.338;8.520;2023-03-01T09:23:43;37.90;;;20.77;;
75112;SDS011;63692;47.338;8.520;2023-03-01T09:26:15;37.35;;;20.08;;
75112;SDS011;63692;47.338;8.520;2023-03-01T09:28:44;36.97;;;20.23;;
75112;SDS011;63692;47.338;8.520;2023-03-01T09:31:10;42.00;;;20.85;;
75112;SDS011;63692;47.338;8.520;2023-03-01T09:33:40;43.00;;;21.13;;
75112;SDS011;63692;47.338;8.520;2023-03-01T09:36:07;40.85;;;22.30;;
75112;SDS011;63692;47.338;8.520;2023-03-01T09:38:35;40.63;;;21.10;;
75112;SDS011;63692;47.338;8.520;2023-03-01T09:41:01;41.47;;;21.52;;
75112;SDS011;63692;47.338;8.520;2023-03-01T09:43:29;42.58;;;22.23;;
75112;SDS011;63692;47.338;8.520;2023-03-01T09:46:06;39.58;;;20.65;;
75112;SDS011;63692;47.338;8.520;2023-03-01T09:48:42;41.77;;;21.83;;
75112;SDS011;63692;47.338;8.520;2023-03-01T09:51:15;40.22;;;21.58;;
75112;SDS011;63692;47.338;8.520;2023-03-01T09:53:44;42.97;;;21.52;;
75112;SDS011;63692;47.338;8.520;2023-03-01T09:56:16;37.08;;;20.27;;
75112;SDS011;63692;47.338;8.520;2023-03-01T10:01:28;39.17;;;20.60;;
75112;SDS011;63692;47.338;8.520;2023-03-01T10:04:12;41.25;;;21.42;;
75112;SDS011;63692;47.338;8.520;2023-03-01T10:09:37;38.78;;;20.25;;
75112;SDS011;63692;47.338;8.520;2023-03-01T10:12:39;40.13;;;20.17;;
75112;SDS011;63692;47.338;8.520;2023-03-01T10:20:23;35.80;;;18.92;;
75112;SDS011;63692;47.338;8.520;2023-03-01T10:23:07;37.58;;;20.70;;
75112;SDS011;63692;47.338;8.520;2023-03-01T10:28:41;37.60;;;19.92;;
75112;SDS011;63692;47.338;8.520;2023-03-01T10:31:27;38.05;;;19.80;;
75112;SDS011;63692;47.338;8.520;2023-03-01T10:34:13;36.55;;;19.85;;
75112;SDS011;63692;47.338;8.520;2023-03-01T10:36:42;35.40;;;19.42;;
75112;SDS011;63692;47.338;8.520;2023-03-01T10:39:13;37.67;;;20.10;;
75112;SDS011;63692;47.338;8.520;2023-03-01T10:41:57;37.60;;;20.40;;
75112;SDS011;63692;47.338;8.520;2023-03-01T10:44:44;37.58;;;20.58;;
75112;SDS011;63692;47.338;8.520;2023-03-01T10:47:18;36.30;;;19.83;;
75112;SDS011;63692;47.338;8.520;2023-03-01T10:49:59;36.47;;;20.52;;
75112;SDS011;63692;47.338;8.520;2023-03-01T10:52:32;37.08;;;19.52;;
75112;SDS011;63692;47.338;8.520;2023-03-01T10:55:03;33.13;;;18.88;;
75112;SDS011;63692;47.338;8.520;2023-03-01T10:57:38;34.50;;;18.80;;
75112;SDS011;63692;47.338;8.520;2023-03-01T11:00:22;35.70;;;19.60;;
75112;SDS011;63692;47.338;8.520;2023-03-01T11:05:24;39.03;;;20.08;;
75112;SDS011;63692;47.338;8.520;2023-03-01T11:07:54;36.95;;;20.42;;
75112;SDS011;63692;47.338;8.520;2023-03-01T11:12:47;39.15;;;21.20;;
75112;SDS011;63692;47.338;8.520;2023-03-01T11:15:46;35.55;;;19.65;;
75112;SDS011;63692;47.338;8.520;2023-03-01T11:18:04;36.78;;;20.58;;
75112;SDS011;63692;47.338;8.520;2023-03-01T11:20:46;35.45;;;19.13;;
75112;SDS011;63692;47.338;8.520;2023-03-01T11:23:16;37.25;;;19.00;;
75112;SDS011;63692;47.338;8.520;2023-03-01T11:25:43;38.22;;;19.80;;
75112;SDS011;63692;47.338;8.520;2023-03-01T11:28:14;40.08;;;19.95;;
75112;SDS011;63692;47.338;8.520;2023-03-01T11:39:31;35.40;;;19.08;;
75112;SDS011;63692;47.338;8.520;2023-03-01T11:42:20;39.00;;;20.60;;
75112;SDS011;63692;47.338;8.520;2023-03-01T11:45:06;34.42;;;19.17;;
75112;SDS011;63692;47.338;8.520;2023-03-01T11:50:36;36.53;;;20.13;;
75112;SDS011;63692;47.338;8.520;2023-03-01T12:08:26;38.78;;;20.77;;
75112;SDS011;63692;47.338;8.520;2023-03-01T12:20:02;37.58;;;19.55;;
75112;SDS011;63692;47.338;8.520;2023-03-01T12:28:31;37.72;;;19.23;;
75112;SDS011;63692;47.338;8.520;2023-03-01T12:40:11;39.30;;;19.45;;
75112;SDS011;63692;47.338;8.520;2023-03-01T12:43:19;36.10;;;19.30;;
75112;SDS011;63692;47.338;8.520;2023-03-01T12:45:50;36.60;;;19.33;;
75112;SDS011;63692;47.338;8.520;2023-03-01T12:51:24;37.45;;;20.27;;
75112;SDS011;63692;47.338;8.520;2023-03-01T12:53:53;38.92;;;20.33;;
75112;SDS011;63692;47.338;8.520;2023-03-01T12:56:27;36.95;;;19.33;;
75112;SDS011;63692;47.338;8.520;2023-03-01T13:00:00;36.22;;;20.00;;
75112;SDS011;63692;47.338;8.520;2023-03-01T13:02:02;33.53;;;18.55;;
75112;SDS011;63692;47.338;8.520;2023-03-01T13:17:52;35.30;;;19.17;;
75112;SDS011;63692;47.338;8.520;2023-03-01T13:20:27;34.75;;;19.45;;
75112;SDS011;63692;47.338;8.520;2023-03-01T13:23:02;37.40;;;19.73;;
75112;SDS011;63692;47.338;8.520;2023-03-01T13:31:11;40.75;;;20.42;;
75112;SDS011;63692;47.338;8.520;2023-03-01T13:33:56;37.88;;;19.17;;
75112;SDS011;63692;47.338;8.520;2023-03-01T13:38:57;35.25;;;19.67;;
75112;SDS011;63692;47.338;8.520;2023-03-01T13:46:49;38.42;;;20.55;;
75112;SDS011;63692;47.338;8.520;2023-03-01T13:49:18;38.83;;;21.75;;
75112;SDS011;63692;47.338;8.520;2023-03-01T13:51:47;38.60;;;21.02;;
75112;SDS011;63692;47.338;8.520;2023-03-01T13:54:26;38.97;;;20.23;;
75112;SDS011;63692;47.338;8.520;2023-03-01T13:56:55;37.40;;;21.05;;
75112;SDS011;63692;47.338;8.520;2023-03-01T13:59:23;39.30;;;21.33;;
75112;SDS011;63692;47.338;8.520;2023-03-01T14:09:17;37.47;;;21.13;;
75112;SDS011;63692;47.338;8.520;2023-03-01T14:19:32;37.63;;;19.98;;
75112;SDS011;63692;47.338;8.520;2023-03-01T14:25:02;35.15;;;20.02;;
75112;SDS011;63692;47.338;8.520;2023-03-01T14:30:00;39.13;;;20.67;;
75112;SDS011;63692;47.338;8.520;2023-03-01T14:32:29;36.28;;;20.45;;
75112;SDS011;63692;47.338;8.520;2023-03-01T14:34:56;38.40;;;20.67;;
75112;SDS011;63692;47.338;8.520;2023-03-01T14:37:33;37.38;;;20.08;;
75112;SDS011;63692;47.338;8.520;2023-03-01T14:40:00;36.15;;;20.25;;
75112;SDS011;63692;47.338;8.520;2023-03-01T14:42:34;42.20;;;20.95;;
75112;SDS011;63692;47.338;8.520;2023-03-01T14:45:01;37.70;;;21.17;;
75112;SDS011;63692;47.338;8.520;2023-03-01T14:47:31;41.90;;;21.40;;
75112;SDS011;63692;47.338;8.520;2023-03-01T14:50:01;34.90;;;19.42;;
75112;SDS011;63692;47.338;8.520;2023-03-01T14:52:40;34.85;;;19.70;;
75112;SDS011;63692;47.338;8.520;2023-03-01T14:55:18;36.15;;;20.60;;
75112;SDS011;63692;47.338;8.520;2023-03-01T14:58:08;36.55;;;20.88;;
75112;SDS011;63692;47.338;8.520;2023-03-01T15:00:36;38.65;;;21.90;;
75112;SDS011;63692;47.338;8.520;2023-03-01T15:03:13;37.03;;;20.75;;
75112;SDS011;63692;47.338;8.520;2023-03-01T15:05:45;35.15;;;20.55;;
75112;SDS011;63692;47.338;8.520;2023-03-01T15:08:18;35.78;;;20.48;;
75112;SDS011;63692;47.338;8.520;2023-03-01T15:11:47;35.40;;;19.88;;
75112;SDS011;63692;47.338;8.520;2023-03-01T15:13:50;37.15;;;20.20;;
75112;SDS011;63692;47.338;8.520;2023-03-01T15:16:18;39.35;;;21.77;;
75112;SDS011;63692;47.338;8.520;2023-03-01T15:18:54;35.58;;;21.27;;
75112;SDS011;63692;47.338;8.520;2023-03-01T15:21:34;39.60;;;20.80;;
75112;SDS011;63692;47.338;8.520;2023-03-01T15:24:06;37.55;;;21.27;;
75112;SDS011;63692;47.338;8.520;2023-03-01T15:27:13;38.55;;;21.95;;
75112;SDS011;63692;47.338;8.520;2023-03-01T15:32:22;39.13;;;22.48;;
75112;SDS011;63692;47.338;8.520;2023-03-01T15:34:53;40.53;;;21.85;;
75112;SDS011;63692;47.338;8.520;2023-03-01T15:42:56;39.75;;;22.27;;
75112;SDS011;63692;47.338;8.520;2023-03-01T15:45:26;38.03;;;21.77;;
75112;SDS011;63692;47.338;8.520;2023-03-01T15:47:54;41.10;;;23.02;;
75112;SDS011;63692;47.338;8.520;2023-03-01T15:50:28;40.83;;;22.60;;
75112;SDS011;63692;47.338;8.520;2023-03-01T15:52:57;38.83;;;23.08;;
75112;SDS011;63692;47.338;8.520;2023-03-01T15:55:26;42.35;;;21.23;;
75112;SDS011;63692;47.338;8.520;2023-03-01T15:58:05;37.45;;;21.50;;
75112;SDS011;63692;47.338;8.520;2023-03-01T16:00:43;39.28;;;22.77;;
75112;SDS011;63692;47.338;8.520;2023-03-01T16:03:11;39.95;;;21.65;;
75112;SDS011;63692;47.338;8.520;2023-03-01T16:10:31;41.38;;;23.60;;
75112;SDS011;63692;47.338;8.520;2023-03-01T16:20:20;42.05;;;21.90;;
75112;SDS011;63692;47.338;8.520;2023-03-01T16:22:46;45.65;;;22.10;;
75112;SDS011;63692;47.338;8.520;2023-03-01T16:27:41;37.13;;;20.45;;
75112;SDS011;63692;47.338;8.520;2023-03-01T16:32:44;37.08;;;20.77;;
75112;SDS011;63692;47.338;8.520;2023-03-01T16:40:22;36.63;;;20.60;;
75112;SDS011;63692;47.338;8.520;2023-03-01T16:42:51;37.35;;;20.05;;
75112;SDS011;63692;47.338;8.520;2023-03-01T16:45:18;36.13;;;20.15;;
75112;SDS011;63692;47.338;8.520;2023-03-01T16:47:44;37.95;;;19.58;;
75112;SDS011;63692;47.338;8.520;2023-03-01T16:50:10;33.10;;;19.15;;
75112;SDS011;63692;47.338;8.520;2023-03-01T16:52:36;37.90;;;21.58;;
75112;SDS011;63692;47.338;8.520;2023-03-01T16:55:03;39.95;;;21.80;;
75112;SDS011;63692;47.338;8.520;2023-03-01T16:57:30;34.92;;;19.88;;
75112;SDS011;63692;47.338;8.520;2023-03-01T16:59:58;37.42;;;19.83;;
75112;SDS011;63692;47.338;8.520;2023-03-01T17:02:24;35.80;;;19.60;;
75112;SDS011;63692;47.338;8.520;2023-03-01T17:04:53;32.58;;;18.85;;
75112;SDS011;63692;47.338;8.520;2023-03-01T17:07:19;37.28;;;19.83;;
75112;SDS011;63692;47.338;8.520;2023-03-01T17:09:45;38.15;;;19.90;;
75112;SDS011;63692;47.338;8.520;2023-03-01T17:12:11;34.40;;;18.85;;
75112;SDS011;63692;47.338;8.520;2023-03-01T17:14:37;34.30;;;19.83;;
75112;SDS011;63692;47.338;8.520;2023-03-01T17:19:33;39.42;;;20.00;;
75112;SDS011;63692;47.338;8.520;2023-03-01T17:22:01;32.97;;;19.90;;
75112;SDS011;63692;47.338;8.520;2023-03-01T17:24:27;37.15;;;19.92;;
75112;SDS011;63692;47.338;8.520;2023-03-01T17:26:56;38.15;;;20.15;;
75112;SDS011;63692;47.338;8.520;2023-03-01T17:29:22;36.95;;;20.02;;
75112;SDS011;63692;47.338;8.520;2023-03-01T17:31:47;35.78;;;19.42;;
75112;SDS011;63692;47.338;8.520;2023-03-01T17:34:13;34.85;;;18.92;;
75112;SDS011;63692;47.338;8.520;2023-03-01T17:36:42;33.35;;;18.77;;
75112;SDS011;63692;47.338;8.520;2023-03-01T17:41:35;34.55;;;19.40;;
75112;SDS011;63692;47.338;8.520;2023-03-01T17:44:01;33.25;;;19.23;;
75112;SDS011;63692;47.338;8.520;2023-03-01T17:46:27;37.60;;;19.83;;
75112;SDS011;63692;47.338;8.520;2023-03-01T17:48:53;32.10;;;19.52;;
75112;SDS011;63692;47.338;8.520;2023-03-01T17:51:18;34.53;;;19.65;;
75112;SDS011;63692;47.338;8.520;2023-03-01T17:53:44;34.85;;;20.05;;
75112;SDS011;63692;47.338;8.520;2023-03-01T17:56:13;33.13;;;19.48;;
75112;SDS011;63692;47.338;8.520;2023-03-01T17:58:40;37.28;;;21.15;;
75112;SDS011;63692;47.338;8.520;2023-03-01T18:01:09;32.42;;;19.10;;
75112;SDS011;63692;47.338;8.520;2023-03-01T18:03:37;33.97;;;19.65;;
75112;SDS011;63692;47.338;8.520;2023-03-01T18:06:10;32.83;;;19.70;;
75112;SDS011;63692;47.338;8.520;2023-03-01T18:08:50;34.53;;;19.75;;
75112;SDS011;63692;47.338;8.520;2023-03-01T18:11:16;36.03;;;19.90;;
75112;SDS011;63692;47.338;8.520;2023-03-01T18:13:43;37.92;;;20.17;;
75112;SDS011;63692;47.338;8.520;2023-03-01T18:16:10;33.20;;;20.00;;
75112;SDS011;63692;47.338;8.520;2023-03-01T18:18:37;38.38;;;20.08;;
75112;SDS011;63692;47.338;8.520;2023-03-01T18:21:05;32.17;;;18.95;;
75112;SDS011;63692;47.338;8.520;2023-03-01T18:23:31;57.83;;;26.92;;
75112;SDS011;63692;47.338;8.520;2023-03-01T18:25:58;42.55;;;22.30;;
75112;SDS011;63692;47.338;8.520;2023-03-01T18:28:25;35.67;;;21.08;;
75112;SDS011;63692;47.338;8.520;2023-03-01T18:30:59;34.10;;;20.77;;
75112;SDS011;63692;47.338;8.520;2023-03-01T18:33:29;35.83;;;20.60;;
75112;SDS011;63692;47.338;8.520;2023-03-01T18:35:55;35.80;;;20.67;;
75112;SDS011;63692;47.338;8.520;2023-03-01T18:38:21;34.80;;;21.50;;
75112;SDS011;63692;47.338;8.520;2023-03-01T18:40:49;34.03;;;20.08;;
75112;SDS011;63692;47.338;8.520;2023-03-01T18:43:18;36.63;;;20.42;;
75112;SDS011;63692;47.338;8.520;2023-03-01T18:45:44;39.40;;;21.13;;
75112;SDS011;63692;47.338;8.520;2023-03-01T18:48:10;35.63;;;20.98;;
75112;SDS011;63692;47.338;8.520;2023-03-01T18:50:38;36.22;;;21.33;;
75112;SDS011;63692;47.338;8.520;2023-03-01T18:53:04;35.97;;;20.52;;
75112;SDS011;63692;47.338;8.520;2023-03-01T18:55:29;37.70;;;21.85;;
75112;SDS011;63692;47.338;8.520;2023-03-01T18:57:55;37.42;;;22.13;;
75112;SDS011;63692;47.338;8.520;2023-03-01T19:00:21;40.22;;;22.42;;
75112;SDS011;63692;47.338;8.520;2023-03-01T19:02:47;36.63;;;21.05;;
75112;SDS011;63692;47.338;8.520;2023-03-01T19:05:13;36.00;;;21.27;;
75112;SDS011;63692;47.338;8.520;2023-03-01T19:07:38;39.42;;;21.60;;
75112;SDS011;63692;47.338;8.520;2023-03-01T19:10:04;37.30;;;22.08;;
75112;SDS011;63692;47.338;8.520;2023-03-01T19:12:30;36.70;;;22.25;;
75112;SDS011;63692;47.338;8.520;2023-03-01T19:14:59;37.53;;;21.92;;
75112;SDS011;63692;47.338;8.520;2023-03-01T19:17:24;37.92;;;21.45;;
75112;SDS011;63692;47.338;8.520;2023-03-01T19:19:54;36.75;;;21.40;;
75112;SDS011;63692;47.338;8.520;2023-03-01T19:22:20;37.95;;;21.77;;
75112;SDS011;63692;47.338;8.520;2023-03-01T19:24:46;40.35;;;21.88;;
75112;SDS011;63692;47.338;8.520;2023-03-01T19:27:12;41.08;;;23.25;;
75112;SDS011;63692;47.338;8.520;2023-03-01T19:29:37;37.47;;;22.33;;
75112;SDS011;63692;47.338;8.520;2023-03-01T19:32:03;37.95;;;22.13;;
75112;SDS011;63692;47.338;8.520;2023-03-01T19:34:29;39.90;;;21.88;;
75112;SDS011;63692;47.338;8.520;2023-03-01T19:36:55;36.60;;;21.63;;
75112;SDS011;63692;47.338;8.520;2023-03-01T19:39:20;38.35;;;22.80;;
75112;SDS011;63692;47.338;8.520;2023-03-01T19:41:50;36.67;;;21.60;;
75112;SDS011;63692;47.338;8.520;2023-03-01T19:44:16;39.78;;;22.23;;
75112;SDS011;63692;47.338;8.520;2023-03-01T19:46:41;38.53;;;22.35;;
75112;SDS011;63692;47.338;8.520;2023-03-01T19:49:07;37.58;;;21.70;;
75112;SDS011;63692;47.338;8.520;2023-03-01T19:51:33;41.50;;;22.30;;
75112;SDS011;63692;47.338;8.520;2023-03-01T19:54:00;36.28;;;21.05;;
75112;SDS011;63692;47.338;8.520;2023-03-01T19:56:26;36.47;;;21.63;;
75112;SDS011;63692;47.338;8.520;2023-03-01T19:58:52;42.05;;;21.77;;
75112;SDS011;63692;47.338;8.520;2023-03-01T20:01:24;37.42;;;21.17;;
75112;SDS011;63692;47.338;8.520;2023-03-01T20:03:53;34.97;;;20.75;;
75112;SDS011;63692;47.338;8.520;2023-03-01T20:06:19;41.47;;;22.27;;
75112;SDS011;63692;47.338;8.520;2023-03-01T20:08:46;38.70;;;22.70;;
75112;SDS011;63692;47.338;8.520;2023-03-01T20:11:13;41.65;;;23.30;;
75112;SDS011;63692;47.338;8.520;2023-03-01T20:13:40;37.97;;;21.92;;
75112;SDS011;63692;47.338;8.520;2023-03-01T20:16:06;37.72;;;21.92;;
75112;SDS011;63692;47.338;8.520;2023-03-01T20:18:32;37.40;;;22.02;;
75112;SDS011;63692;47.338;8.520;2023-03-01T20:20:59;39.28;;;22.65;;
75112;SDS011;63692;47.338;8.520;2023-03-01T20:28:19;40.25;;;23.48;;
75112;SDS011;63692;47.338;8.520;2023-03-01T20:30:45;40.20;;;22.75;;
75112;SDS011;63692;47.338;8.520;2023-03-01T20:33:10;37.25;;;22.55;;
75112;SDS011;63692;47.338;8.520;2023-03-01T20:35:39;39.35;;;22.50;;
75112;SDS011;63692;47.338;8.520;2023-03-01T20:38:06;40.45;;;22.45;;
75112;SDS011;63692;47.338;8.520;2023-03-01T20:40:31;38.22;;;22.00;;
75112;SDS011;63692;47.338;8.520;2023-03-01T20:42:58;38.45;;;21.60;;
75112;SDS011;63692;47.338;8.520;2023-03-01T20:45:24;37.28;;;22.33;;
75112;SDS011;63692;47.338;8.520;2023-03-01T20:47:50;40.28;;;23.80;;
